createdAt,value
2022-08-07T00:00:26.164Z,15.67
2022-08-07T00:02:56.128Z,12.43
2022-08-07T00:05:24.209Z,14.10
2022-08-07T00:07:59.810Z,15.00
2022-08-07T00:10:30.539Z,12.63
2022-08-07T00:13:02.193Z,12.50
2022-08-07T00:15:37.663Z,13.20
2022-08-07T00:18:19.687Z,13.13
2022-08-07T00:20:51.919Z,13.70
2022-08-07T00:23:21.080Z,13.80
2022-08-07T00:25:52.048Z,15.67
2022-08-07T00:28:33.790Z,15.03
2022-08-07T00:31:05.909Z,16.20
2022-08-07T00:33:35.816Z,14.87
2022-08-07T00:36:04.248Z,12.93
2022-08-07T00:38:33.207Z,17.30
2022-08-07T00:41:01.344Z,17.07
2022-08-07T00:44:00.314Z,17.17
2022-08-07T00:46:17.025Z,15.07
2022-08-07T00:48:49.991Z,19.70
2022-08-07T00:51:19.797Z,17.80
2022-08-07T00:53:55.271Z,14.53
2022-08-07T00:56:30.350Z,16.73
2022-08-07T00:59:01.906Z,14.20
2022-08-07T01:01:30.049Z,16.30
2022-08-07T01:04:24.529Z,14.67
2022-08-07T01:06:53.841Z,16.10
2022-08-07T01:10:06.016Z,15.63
2022-08-07T01:12:30.288Z,14.73
2022-08-07T01:15:01.762Z,14.73
2022-08-07T01:17:31.985Z,14.90
2022-08-07T01:20:04.917Z,19.23
2022-08-07T01:22:36.015Z,16.53
2022-08-07T01:25:39.969Z,15.00
2022-08-07T01:27:52.517Z,17.60
2022-08-07T01:30:22.418Z,17.80
2022-08-07T01:32:55.133Z,15.63
2022-08-07T01:35:24.385Z,23.80
2022-08-07T01:37:53.661Z,16.30
2022-08-07T01:40:22.192Z,19.83
2022-08-07T01:42:57.432Z,15.90
2022-08-07T01:45:37.188Z,16.33
2022-08-07T01:48:17.820Z,13.30
2022-08-07T01:50:51.245Z,13.30
2022-08-07T01:54:08.906Z,14.03
2022-08-07T01:56:15.195Z,16.67
2022-08-07T01:58:46.356Z,15.10
2022-08-07T02:01:58.884Z,15.73
2022-08-07T02:04:10.129Z,12.90
2022-08-07T02:06:39.225Z,17.63
2022-08-07T02:09:11.738Z,16.47
2022-08-07T02:12:04.966Z,18.30
2022-08-07T02:14:36.620Z,15.70
2022-08-07T02:17:09.448Z,13.23
2022-08-07T02:20:05.155Z,16.50
2022-08-07T02:22:27.837Z,15.90
2022-08-07T02:24:57.412Z,15.20
2022-08-07T02:27:26.595Z,11.90
2022-08-07T02:30:03.551Z,16.43
2022-08-07T02:32:32.730Z,16.03
2022-08-07T02:35:00.867Z,14.60
2022-08-07T02:37:36.087Z,14.43
2022-08-07T02:40:30.237Z,14.57
2022-08-07T02:42:54.556Z,16.17
2022-08-07T02:46:00.827Z,14.73
2022-08-07T02:48:15.646Z,14.10
2022-08-07T02:50:45.004Z,14.67
2022-08-07T02:53:16.348Z,16.43
2022-08-07T02:56:03.518Z,14.17
2022-08-07T02:58:33.817Z,12.73
2022-08-07T03:01:02.077Z,13.63
2022-08-07T03:03:49.044Z,13.63
2022-08-07T03:06:32.100Z,15.93
2022-08-07T03:09:02.435Z,13.57
2022-08-07T03:11:32.697Z,17.23
2022-08-07T03:14:06.731Z,12.53
2022-08-07T03:16:34.924Z,12.73
2022-08-07T03:19:02.929Z,11.73
2022-08-07T03:21:32.966Z,12.90
2022-08-07T03:24:19.219Z,12.10
2022-08-07T03:26:59.165Z,12.00
2022-08-07T03:29:27.721Z,15.60
2022-08-07T03:31:55.893Z,15.30
2022-08-07T03:34:27.284Z,12.47
2022-08-07T03:36:57.330Z,13.73
2022-08-07T03:39:59.193Z,10.10
2022-08-07T03:42:15.231Z,11.47
2022-08-07T03:44:43.108Z,12.90
2022-08-07T03:47:22.701Z,14.37
2022-08-07T03:49:52.344Z,14.60
2022-08-07T03:52:26.861Z,13.70
2022-08-07T03:54:57.288Z,12.87
2022-08-07T03:59:05.574Z,14.03
2022-08-07T04:00:16.762Z,11.70
2022-08-07T04:02:49.306Z,12.00
2022-08-07T04:05:17.557Z,10.53
2022-08-07T04:07:52.052Z,17.80
2022-08-07T04:10:20.429Z,12.10
2022-08-07T04:12:53.346Z,10.73
2022-08-07T04:15:23.933Z,14.00
2022-08-07T04:18:31.190Z,16.33
2022-08-07T04:20:39.933Z,12.60
2022-08-07T04:23:22.359Z,12.20
2022-08-07T04:25:50.398Z,13.23
2022-08-07T04:28:22.718Z,11.67
2022-08-07T04:30:57.266Z,11.77
2022-08-07T04:33:27.316Z,12.63
2022-08-07T04:35:55.603Z,13.70
2022-08-07T04:38:26.723Z,11.30
2022-08-07T04:40:56.850Z,13.40
2022-08-07T04:43:53.546Z,13.57
2022-08-07T04:46:25.708Z,12.27
2022-08-07T04:48:58.374Z,10.73
2022-08-07T04:51:32.824Z,11.43
2022-08-07T04:54:06.198Z,11.80
2022-08-07T04:58:15.882Z,11.97
2022-08-07T05:00:12.067Z,12.63
2022-08-07T05:02:23.741Z,12.07
2022-08-07T05:04:57.283Z,9.40
2022-08-07T05:07:36.607Z,10.93
2022-08-07T05:10:07.720Z,10.87
2022-08-07T05:12:46.151Z,10.67
2022-08-07T05:15:24.966Z,12.00
2022-08-07T05:17:56.707Z,9.00
2022-08-07T05:20:27.241Z,10.43
2022-08-07T05:22:57.935Z,10.47
2022-08-07T05:26:10.910Z,11.93
2022-08-07T05:28:20.519Z,9.73
2022-08-07T05:30:52.574Z,10.57
2022-08-07T05:33:20.815Z,7.77
2022-08-07T05:35:49.499Z,8.00
2022-08-07T05:39:01.498Z,9.20
2022-08-07T05:41:11.984Z,10.00
2022-08-07T05:43:50.023Z,10.80
2022-08-07T05:46:31.969Z,11.83
2022-08-07T05:48:59.906Z,10.10
2022-08-07T05:51:31.557Z,11.80
2022-08-07T05:54:12.939Z,10.60
2022-08-07T05:56:55.020Z,9.80
2022-08-07T05:59:24.631Z,13.50
2022-08-07T06:01:53.974Z,9.20
2022-08-07T06:04:29.763Z,12.10
2022-08-07T06:07:03.630Z,11.90
2022-08-07T06:09:56.630Z,9.13
2022-08-07T06:12:20.874Z,9.77
2022-08-07T06:14:49.627Z,10.40
2022-08-07T06:17:19.193Z,11.27
2022-08-07T06:20:03.466Z,10.67
2022-08-07T06:22:38.680Z,11.23
2022-08-07T06:25:10.190Z,10.97
2022-08-07T06:27:44.168Z,10.60
2022-08-07T06:30:36.059Z,10.73
2022-08-07T06:33:15.639Z,9.90
2022-08-07T06:35:45.457Z,9.60
2022-08-07T06:38:19.873Z,15.13
2022-08-07T06:40:49.920Z,10.83
2022-08-07T06:43:20.900Z,12.63
2022-08-07T06:45:50.280Z,10.40
2022-08-07T06:48:25.014Z,15.57
2022-08-07T06:50:53.307Z,10.17
2022-08-07T06:55:29.815Z,10.97
2022-08-07T06:56:15.099Z,8.93
2022-08-07T07:00:14.658Z,9.80
2022-08-07T07:01:33.197Z,11.23
2022-08-07T07:04:28.178Z,9.23
2022-08-07T07:07:02.125Z,9.30
2022-08-07T07:09:31.658Z,9.17
2022-08-07T07:12:07.553Z,10.97
2022-08-07T07:14:54.561Z,8.83
2022-08-07T07:17:28.800Z,8.77
2022-08-07T07:20:12.573Z,11.83
2022-08-07T07:24:08.087Z,7.83
2022-08-07T07:26:35.320Z,9.33
2022-08-07T07:28:42.406Z,8.80
2022-08-07T07:31:17.251Z,7.70
2022-08-07T07:33:56.689Z,8.27
2022-08-07T07:36:32.454Z,8.93
2022-08-07T07:39:01.302Z,8.50
2022-08-07T07:41:30.848Z,8.10
2022-08-07T07:44:25.784Z,8.60
2022-08-07T07:47:02.213Z,8.40
2022-08-07T07:50:36.255Z,7.93
2022-08-07T07:52:31.805Z,8.13
2022-08-07T07:54:59.875Z,7.60
2022-08-07T07:57:50.278Z,9.20
2022-08-07T08:00:29.246Z,7.93
2022-08-07T08:03:08.320Z,7.70
2022-08-07T08:05:54.252Z,7.97
2022-08-07T08:08:34.549Z,7.40
2022-08-07T08:11:05.535Z,8.73
2022-08-07T08:13:36.761Z,8.17
2022-08-07T08:16:25.576Z,7.10
2022-08-07T08:18:54.159Z,7.33
2022-08-07T08:21:56.006Z,7.97
2022-08-07T08:24:46.999Z,11.83
2022-08-07T08:27:16.721Z,7.53
2022-08-07T08:29:55.692Z,7.17
2022-08-07T08:32:38.149Z,8.00
2022-08-07T08:35:08.083Z,7.40
2022-08-07T08:38:08.241Z,7.10
2022-08-07T08:40:29.302Z,7.50
2022-08-07T08:42:59.541Z,7.43
2022-08-07T08:45:41.957Z,10.43
2022-08-07T08:48:28.441Z,6.17
2022-08-07T08:51:03.264Z,5.70
2022-08-07T08:53:33.800Z,6.37
2022-08-07T08:56:05.969Z,6.87
2022-08-07T08:58:38.115Z,6.40
2022-08-07T09:01:15.080Z,6.40
2022-08-07T09:03:52.728Z,6.10
2022-08-07T09:06:28.546Z,6.10
2022-08-07T09:09:01.631Z,6.50
2022-08-07T09:11:43.413Z,6.43
2022-08-07T09:14:21.771Z,5.90
2022-08-07T09:16:58.874Z,5.90
2022-08-07T09:19:51.269Z,6.37
2022-08-07T09:24:34.081Z,5.80
2022-08-07T09:25:26.955Z,6.17
2022-08-07T09:28:02.057Z,5.93
2022-08-07T09:30:36.412Z,6.00
2022-08-07T09:33:16.684Z,5.40
2022-08-07T09:36:05.063Z,5.77
2022-08-07T09:38:40.124Z,5.67
2022-08-07T09:41:10.799Z,6.07
2022-08-07T09:44:05.706Z,5.50
2022-08-07T09:47:51.886Z,5.57
2022-08-07T09:50:01.016Z,6.00
2022-08-07T09:52:35.496Z,5.43
2022-08-07T09:55:28.942Z,5.63
2022-08-07T09:58:20.477Z,5.53
2022-08-07T10:01:50.397Z,5.10
2022-08-07T10:04:33.005Z,5.40
2022-08-07T10:07:06.164Z,5.73
2022-08-07T10:10:03.325Z,4.77
2022-08-07T10:12:52.884Z,5.43
2022-08-07T10:15:43.999Z,4.73
2022-08-07T10:18:32.214Z,5.07
2022-08-07T10:22:14.235Z,5.17
2022-08-07T10:24:26.782Z,5.50
2022-08-07T10:27:02.878Z,4.80
2022-08-07T10:29:51.649Z,4.53
2022-08-07T10:32:50.931Z,4.93
2022-08-07T10:35:56.674Z,4.07
2022-08-07T10:38:42.274Z,5.03
2022-08-07T10:41:46.383Z,4.53
2022-08-07T10:44:12.517Z,4.23
2022-08-07T10:46:45.862Z,4.37
2022-08-07T10:49:17.061Z,4.37
2022-08-07T10:52:13.285Z,4.40
2022-08-07T10:54:53.452Z,4.60
2022-08-07T10:57:36.878Z,4.20
2022-08-07T11:00:08.984Z,3.93
2022-08-07T11:02:41.285Z,4.17
2022-08-07T11:05:35.867Z,4.63
2022-08-07T11:08:30.281Z,4.50
2022-08-07T11:11:00.688Z,4.50
2022-08-07T11:14:42.449Z,4.30
2022-08-07T11:16:30.557Z,3.80
2022-08-07T11:19:04.705Z,3.60
2022-08-07T11:21:41.020Z,4.30
2022-08-07T11:24:25.078Z,3.53
2022-08-07T11:26:56.869Z,3.60
2022-08-07T11:29:42.896Z,4.13
2022-08-07T11:32:25.795Z,3.90
2022-08-07T11:34:56.866Z,3.93
2022-08-07T11:37:38.362Z,3.53
2022-08-07T11:40:31.564Z,3.50
2022-08-07T11:43:01.808Z,2.97
2022-08-07T11:45:36.378Z,3.00
2022-08-07T11:48:29.557Z,2.60
2022-08-07T11:51:09.843Z,2.70
2022-08-07T11:53:43.336Z,3.17
2022-08-07T11:56:46.569Z,3.30
2022-08-07T12:00:12.373Z,2.60
2022-08-07T12:02:31.102Z,2.40
2022-08-07T12:05:09.103Z,2.57
2022-08-07T12:07:53.525Z,2.17
2022-08-07T12:10:31.696Z,2.30
2022-08-07T12:13:11.724Z,1.88
2022-08-07T12:16:06.810Z,2.40
2022-08-07T12:18:39.317Z,2.27
2022-08-07T12:21:24.452Z,2.60
2022-08-07T12:24:36.818Z,2.43
2022-08-07T12:26:58.948Z,2.30
2022-08-07T12:29:37.826Z,2.10
2022-08-07T12:32:12.777Z,2.40
2022-08-07T12:34:42.140Z,1.90
2022-08-07T12:37:27.674Z,2.07
2022-08-07T12:39:57.394Z,1.77
2022-08-07T12:42:27.544Z,1.73
2022-08-07T12:44:58.662Z,1.77
2022-08-07T12:47:31.835Z,2.20
2022-08-07T12:50:34.372Z,2.50
2022-08-07T12:52:57.335Z,2.40
2022-08-07T12:55:41.171Z,2.03
2022-08-07T12:58:16.902Z,2.17
2022-08-07T13:00:51.617Z,2.50
2022-08-07T13:04:02.261Z,1.90
2022-08-07T13:06:31.348Z,1.90
2022-08-07T13:10:09.792Z,1.83
2022-08-07T13:12:03.386Z,1.58
2022-08-07T13:14:46.797Z,1.52
2022-08-07T13:17:40.673Z,1.92
2022-08-07T13:20:13.166Z,1.98
2022-08-07T13:22:52.668Z,1.60
2022-08-07T13:25:29.871Z,1.70
2022-08-07T13:28:11.481Z,2.10
2022-08-07T13:30:48.914Z,2.00
2022-08-07T13:34:30.500Z,2.23
2022-08-07T13:36:20.293Z,2.53
2022-08-07T13:38:50.859Z,2.80
2022-08-07T13:41:27.921Z,2.43
2022-08-07T13:43:57.444Z,2.37
2022-08-07T13:46:32.837Z,2.53
2022-08-07T13:49:04.054Z,2.50
2022-08-07T13:52:04.831Z,2.37
2022-08-07T13:54:33.535Z,2.50
2022-08-07T13:57:03.807Z,2.23
2022-08-07T13:59:32.918Z,2.40
2022-08-07T14:02:07.740Z,2.30
2022-08-07T14:04:50.172Z,2.40
2022-08-07T14:07:23.778Z,2.20
2022-08-07T14:10:01.459Z,2.40
2022-08-07T14:12:49.430Z,2.50
2022-08-07T14:15:31.972Z,2.60
2022-08-07T14:18:23.511Z,2.23
2022-08-07T14:20:56.001Z,2.20
2022-08-07T14:23:31.706Z,2.13
2022-08-07T14:26:23.641Z,2.37
2022-08-07T14:29:04.357Z,2.10
2022-08-07T14:31:42.927Z,2.13
2022-08-07T14:34:27.238Z,2.47
2022-08-07T14:37:02.031Z,2.60
2022-08-07T14:40:15.655Z,2.47
2022-08-07T14:42:27.536Z,5.60
2022-08-07T14:45:00.132Z,2.50
2022-08-07T14:47:47.704Z,2.57
2022-08-07T14:50:19.142Z,2.83
2022-08-07T14:52:50.204Z,2.37
2022-08-07T14:55:18.416Z,2.73
2022-08-07T14:57:58.167Z,2.70
2022-08-07T15:00:30.333Z,2.60
2022-08-07T15:02:58.638Z,2.60
2022-08-07T15:05:27.557Z,2.60
2022-08-07T15:08:00.172Z,2.40
2022-08-07T15:10:29.742Z,2.40
2022-08-07T15:13:01.103Z,2.70
2022-08-07T15:18:35.828Z,2.80
2022-08-07T15:21:08.351Z,2.70
2022-08-07T15:25:13.487Z,2.50
2022-08-07T15:26:47.466Z,2.50
2022-08-07T15:32:05.449Z,2.47
2022-08-07T15:34:36.257Z,2.30
2022-08-07T15:42:55.134Z,2.33
2022-08-07T15:45:58.175Z,2.13
2022-08-07T15:48:25.762Z,1.87
2022-08-07T15:51:08.560Z,2.23
2022-08-07T15:53:52.655Z,2.00
2022-08-07T15:56:25.960Z,2.17
2022-08-07T15:58:55.133Z,2.13
2022-08-07T16:01:38.479Z,2.83
2022-08-07T16:04:14.501Z,2.83
2022-08-07T16:06:44.325Z,9.50
2022-08-07T16:09:22.293Z,6.20
2022-08-07T16:12:04.744Z,2.90
2022-08-07T16:14:38.553Z,2.53
2022-08-07T16:17:16.321Z,2.07
2022-08-07T16:20:33.675Z,2.20
2022-08-07T16:23:12.245Z,1.87
2022-08-07T16:26:08.563Z,4.27
2022-08-07T16:30:08.755Z,1.80
2022-08-07T16:31:50.875Z,4.40
2022-08-07T16:34:28.456Z,3.83
2022-08-07T16:38:04.442Z,2.93
2022-08-07T16:40:23.393Z,2.30
2022-08-07T16:43:00.595Z,10.37
2022-08-07T16:46:33.694Z,3.10
2022-08-07T16:48:58.460Z,2.60
2022-08-07T16:51:54.160Z,9.67
2022-08-07T16:54:34.631Z,2.57
2022-08-07T16:57:15.588Z,10.30
2022-08-07T16:59:49.148Z,3.03
2022-08-07T17:03:04.942Z,2.50
2022-08-07T17:06:02.248Z,2.60
2022-08-07T17:08:19.397Z,2.93
2022-08-07T17:10:55.685Z,2.50
2022-08-07T17:14:18.991Z,2.97
2022-08-07T17:16:44.320Z,2.87
2022-08-07T17:20:03.497Z,3.60
2022-08-07T17:22:38.104Z,6.90
2022-08-07T17:25:11.161Z,14.43
2022-08-07T17:27:51.668Z,8.10
2022-08-07T17:30:26.510Z,8.10
2022-08-07T17:33:04.877Z,23.77
2022-08-07T17:35:58.672Z,9.63
2022-08-07T17:38:34.236Z,3.43
2022-08-07T17:41:12.272Z,4.13
2022-08-07T17:44:03.270Z,10.40
2022-08-07T17:46:40.190Z,19.13
2022-08-07T17:49:11.340Z,3.80
2022-08-07T17:51:59.835Z,4.83
2022-08-07T17:54:53.336Z,17.55
2022-08-07T17:57:24.822Z,7.80
2022-08-07T18:00:15.365Z,3.17
2022-08-07T18:03:09.217Z,6.00
2022-08-07T18:06:01.515Z,7.70
2022-08-07T18:08:32.549Z,3.00
2022-08-07T18:12:07.371Z,7.40
2022-08-07T18:14:01.377Z,3.50
2022-08-07T18:16:34.045Z,6.10
2022-08-07T18:21:02.364Z,3.50
2022-08-07T18:22:05.373Z,3.77
2022-08-07T18:24:40.845Z,3.60
2022-08-07T18:27:38.828Z,3.73
2022-08-07T18:30:31.920Z,3.50
2022-08-07T18:33:55.126Z,3.80
2022-08-07T18:36:33.254Z,3.97
2022-08-07T18:40:06.629Z,5.93
2022-08-07T18:42:04.546Z,4.43
2022-08-07T18:45:09.148Z,11.33
2022-08-07T18:47:44.505Z,4.17
2022-08-07T18:50:39.588Z,4.67
2022-08-07T18:53:12.853Z,15.03
2022-08-07T18:55:57.509Z,4.43
2022-08-07T18:58:43.436Z,5.40
2022-08-07T19:02:18.708Z,3.23
2022-08-07T19:04:32.211Z,18.83
2022-08-07T19:07:09.794Z,4.47
2022-08-07T19:09:57.401Z,4.70
2022-08-07T19:12:31.799Z,4.10
2022-08-07T19:16:03.819Z,3.50
2022-08-07T19:18:02.502Z,4.83
2022-08-07T19:20:33.882Z,3.33
2022-08-07T19:23:18.669Z,3.20
2022-08-07T19:26:22.769Z,3.97
2022-08-07T19:30:56.359Z,9.77
2022-08-07T19:31:58.593Z,5.90
2022-08-07T19:34:33.874Z,3.47
2022-08-07T19:37:09.945Z,3.53
2022-08-07T19:39:57.907Z,4.17
2022-08-07T19:42:31.307Z,5.23
2022-08-07T19:45:00.660Z,4.07
2022-08-07T19:47:41.832Z,4.20
2022-08-07T19:50:43.846Z,10.23
2022-08-07T19:53:00.847Z,9.83
2022-08-07T19:55:56.683Z,6.17
2022-08-07T19:58:18.341Z,5.53
2022-08-07T20:00:56.969Z,7.20
2022-08-07T20:03:34.993Z,4.33
2022-08-07T20:06:04.519Z,3.80
2022-08-07T20:08:34.851Z,7.00
2022-08-07T20:11:09.629Z,4.17
2022-08-07T20:13:41.948Z,4.60
2022-08-07T20:16:32.136Z,3.10
2022-08-07T20:18:59.683Z,2.93
2022-08-07T20:21:29.163Z,4.47
2022-08-07T20:24:14.675Z,3.93
2022-08-07T20:26:49.953Z,4.63
2022-08-07T20:29:47.722Z,4.40
2022-08-07T20:32:11.271Z,3.27
2022-08-07T20:34:50.559Z,2.90
2022-08-07T20:37:23.043Z,5.03
2022-08-07T20:40:03.207Z,3.70
2022-08-07T20:42:32.601Z,2.60
2022-08-07T20:45:01.214Z,3.03
2022-08-07T20:47:56.290Z,2.47
2022-08-07T20:50:22.033Z,2.63
2022-08-07T20:52:51.863Z,2.83
2022-08-07T20:55:23.914Z,2.50
2022-08-07T20:58:00.013Z,2.70
2022-08-07T21:00:41.877Z,2.87
2022-08-07T21:03:10.465Z,4.20
2022-08-07T21:05:50.993Z,12.83
2022-08-07T21:08:34.996Z,2.93
2022-08-07T21:11:07.509Z,3.33
2022-08-07T21:13:57.109Z,7.80
2022-08-07T21:16:29.248Z,4.33
2022-08-07T21:18:57.449Z,4.17
2022-08-07T21:21:30.208Z,4.37
2022-08-07T21:24:04.097Z,4.73
2022-08-07T21:26:42.918Z,3.70
2022-08-07T21:29:18.139Z,3.63
2022-08-07T21:32:43.866Z,4.33
2022-08-07T21:34:45.997Z,3.77
2022-08-07T21:37:22.572Z,3.50
2022-08-07T21:40:12.109Z,3.93
2022-08-07T21:42:48.499Z,3.03
2022-08-07T21:46:04.923Z,6.13
2022-08-07T21:48:27.662Z,3.20
2022-08-07T21:51:06.066Z,5.07
2022-08-07T21:53:37.012Z,3.00
2022-08-07T21:56:36.417Z,3.17
2022-08-07T21:59:06.626Z,4.00
2022-08-07T22:02:07.711Z,3.60
2022-08-07T22:04:27.692Z,2.77
2022-08-07T22:06:59.977Z,5.10
2022-08-07T22:09:34.836Z,2.73
2022-08-07T22:12:24.711Z,2.60
2022-08-07T22:14:59.591Z,5.47
2022-08-07T22:17:35.956Z,3.33
2022-08-07T22:20:08.836Z,3.47
2022-08-07T22:22:52.016Z,2.70
2022-08-07T22:25:26.882Z,3.07
2022-08-07T22:28:20.114Z,3.40
2022-08-07T22:30:52.761Z,2.80
2022-08-07T22:33:53.002Z,2.40
2022-08-07T22:36:13.686Z,3.00
2022-08-07T22:38:47.878Z,2.73
2022-08-07T22:41:20.057Z,3.13
2022-08-07T22:43:50.357Z,2.50
2022-08-07T22:47:11.189Z,3.00
2022-08-07T22:49:54.389Z,2.87
2022-08-07T22:52:45.861Z,2.80
2022-08-07T22:55:31.009Z,4.17
2022-08-07T22:58:06.308Z,2.70
2022-08-07T23:00:37.709Z,2.60
2022-08-07T23:03:20.716Z,2.73
2022-08-07T23:06:08.648Z,6.23
2022-08-07T23:08:54.487Z,2.40
2022-08-07T23:11:45.899Z,3.20
2022-08-07T23:14:31.016Z,4.70
2022-08-07T23:17:15.505Z,3.20
2022-08-07T23:20:05.123Z,2.80
2022-08-07T23:22:40.672Z,2.50
2022-08-07T23:25:14.905Z,2.33
2022-08-07T23:28:21.156Z,2.63
2022-08-07T23:31:05.709Z,2.50
2022-08-07T23:34:33.888Z,2.57
2022-08-07T23:36:43.266Z,2.73
2022-08-07T23:39:14.993Z,2.43
2022-08-07T23:42:04.197Z,2.20
2022-08-07T23:44:44.300Z,2.43
2022-08-07T23:47:21.490Z,2.10
2022-08-07T23:50:00.470Z,2.73
2022-08-07T23:52:59.616Z,2.80
2022-08-07T23:55:51.708Z,2.40
2022-08-07T23:58:18.488Z,2.50
